createdAt,value
2022-12-11T00:02:10.992Z,-0.20
2022-12-11T00:05:52.864Z,-0.20
2022-12-11T00:09:34.652Z,-0.20
2022-12-11T00:13:16.495Z,-0.20
2022-12-11T00:16:58.285Z,-0.20
2022-12-11T00:20:40.134Z,-0.20
2022-12-11T00:24:21.895Z,-0.20
2022-12-11T00:28:03.647Z,-0.10
2022-12-11T00:31:45.459Z,-0.10
2022-12-11T00:35:27.324Z,-0.10
2022-12-11T00:39:09.113Z,-0.10
2022-12-11T00:42:50.938Z,-0.10
2022-12-11T00:46:32.829Z,-0.20
2022-12-11T00:50:14.643Z,-0.20
2022-12-11T00:53:56.488Z,-0.30
2022-12-11T00:57:38.229Z,-0.40
2022-12-11T01:01:24.655Z,-0.40
2022-12-11T01:05:06.955Z,-0.50
2022-12-11T01:09:09.407Z,-0.50
2022-12-11T01:12:54.205Z,-0.40
2022-12-11T01:16:36.263Z,-0.40
2022-12-11T01:20:19.695Z,-0.30
2022-12-11T01:24:01.610Z,-0.30
2022-12-11T01:27:43.425Z,-0.20
2022-12-11T01:31:25.184Z,-0.10
2022-12-11T01:35:09.283Z,0.00
2022-12-11T01:38:51.925Z,0.00
2022-12-11T01:42:34.298Z,0.00
2022-12-11T01:46:16.112Z,0.00
2022-12-11T01:49:57.998Z,-0.10
2022-12-11T01:53:43.661Z,-0.20
2022-12-11T01:57:25.445Z,-0.20
2022-12-11T02:01:07.885Z,-0.40
2022-12-11T02:04:49.857Z,-0.40
2022-12-11T02:08:31.720Z,-0.40
2022-12-11T02:12:23.904Z,-0.40
2022-12-11T02:16:11.140Z,-0.40
2022-12-11T02:20:09.787Z,-0.40
2022-12-11T02:24:06.986Z,-0.40
2022-12-11T02:28:03.154Z,-0.40
2022-12-11T02:32:02.462Z,-0.30
2022-12-11T02:35:46.990Z,-0.30
2022-12-11T02:39:29.613Z,-0.30
2022-12-11T02:43:14.743Z,-0.30
2022-12-11T02:46:57.437Z,-0.30
2022-12-11T02:50:44.379Z,-0.20
2022-12-11T02:54:31.424Z,-0.20
2022-12-11T02:58:23.716Z,-0.20
2022-12-11T03:02:06.591Z,-0.30
2022-12-11T03:09:54.648Z,-0.30
2022-12-11T03:13:36.580Z,-0.30
2022-12-11T03:17:21.245Z,-0.40
2022-12-11T03:21:14.565Z,-0.40
2022-12-11T03:25:04.998Z,-0.40
2022-12-11T03:29:03.211Z,-0.40
2022-12-11T03:32:58.639Z,-0.40
2022-12-11T03:36:41.936Z,-0.40
2022-12-11T03:40:26.292Z,-0.40
2022-12-11T03:44:09.206Z,-0.40
2022-12-11T03:47:53.864Z,-0.40
2022-12-11T03:51:36.599Z,-0.40
2022-12-11T03:55:21.166Z,-0.40
2022-12-11T03:59:02.915Z,-0.40
2022-12-11T04:02:45.234Z,-0.40
2022-12-11T04:06:27.164Z,-0.40
2022-12-11T04:10:09.029Z,-0.40
2022-12-11T04:14:11.007Z,-0.40
2022-12-11T04:18:11.331Z,-0.40
2022-12-11T04:22:11.816Z,-0.30
2022-12-11T04:25:53.618Z,-0.20
2022-12-11T04:29:35.384Z,-0.20
2022-12-11T04:33:17.179Z,-0.10
2022-12-11T04:36:58.928Z,-0.10
2022-12-11T04:40:40.780Z,0.00
2022-12-11T04:44:22.531Z,0.00
2022-12-11T04:48:04.545Z,0.10
2022-12-11T04:51:46.281Z,0.20
2022-12-11T04:55:28.040Z,0.20
2022-12-11T04:59:09.984Z,0.20
2022-12-11T05:02:51.779Z,0.30
2022-12-11T05:06:33.578Z,0.20
2022-12-11T05:10:15.411Z,0.20
2022-12-11T05:13:57.214Z,0.30
2022-12-11T05:17:39.105Z,0.30
2022-12-11T05:21:20.947Z,0.40
2022-12-11T05:25:02.748Z,0.40
2022-12-11T05:28:45.756Z,0.50
2022-12-11T05:32:27.559Z,0.50
2022-12-11T05:36:14.036Z,0.50
2022-12-11T05:39:55.830Z,0.50
2022-12-11T05:43:37.717Z,0.40
2022-12-11T05:47:20.951Z,0.40
2022-12-11T05:51:04.317Z,0.40
2022-12-11T05:54:49.359Z,0.40
2022-12-11T05:58:31.998Z,0.40
2022-12-11T06:02:13.901Z,0.40
2022-12-11T06:05:55.783Z,0.40
2022-12-11T06:09:37.560Z,0.40
2022-12-11T06:13:19.344Z,0.50
2022-12-11T06:17:01.623Z,0.50
2022-12-11T06:20:43.401Z,0.50
2022-12-11T06:24:25.168Z,0.60
2022-12-11T06:28:07.095Z,0.60
2022-12-11T06:31:48.944Z,0.60
2022-12-11T06:35:30.781Z,0.60
2022-12-11T06:39:12.546Z,0.60
2022-12-11T06:42:54.936Z,0.70
2022-12-11T06:46:36.718Z,0.70
2022-12-11T06:50:18.526Z,0.70
2022-12-11T06:54:00.314Z,0.70
2022-12-11T06:57:42.162Z,0.80
2022-12-11T07:01:26.677Z,0.80
2022-12-11T07:05:09.056Z,0.80
2022-12-11T07:08:51.300Z,0.80
2022-12-11T07:12:33.040Z,0.80
2022-12-11T07:16:16.497Z,0.80
2022-12-11T07:19:58.543Z,0.90
2022-12-11T07:23:40.909Z,0.80
2022-12-11T07:27:22.927Z,0.90
2022-12-11T07:31:10.434Z,0.90
2022-12-11T07:34:52.344Z,0.90
2022-12-11T07:38:34.220Z,0.90
2022-12-11T07:42:15.962Z,0.90
2022-12-11T07:46:09.605Z,0.90
2022-12-11T07:49:51.393Z,1.00
2022-12-11T07:53:33.138Z,0.90
2022-12-11T07:57:14.965Z,1.00
2022-12-11T08:00:58.153Z,1.00
2022-12-11T08:04:39.993Z,1.00
2022-12-11T08:08:21.825Z,1.00
2022-12-11T08:12:03.844Z,1.00
2022-12-11T08:15:45.595Z,1.00
2022-12-11T08:19:28.255Z,1.00
2022-12-11T08:23:10.028Z,1.00
2022-12-11T08:26:51.808Z,1.00
2022-12-11T08:30:33.789Z,1.00
2022-12-11T08:34:15.809Z,1.00
2022-12-11T08:37:57.574Z,0.90
2022-12-11T08:41:39.300Z,0.90
2022-12-11T08:45:21.063Z,0.90
2022-12-11T08:49:02.885Z,0.90
2022-12-11T08:52:44.674Z,1.00
2022-12-11T08:56:27.871Z,1.00
2022-12-11T09:00:12.430Z,1.00
2022-12-11T09:03:55.628Z,1.10
2022-12-11T09:07:39.338Z,1.00
2022-12-11T09:11:28.055Z,1.10
2022-12-11T09:15:10.659Z,1.10
2022-12-11T09:18:54.807Z,1.20
2022-12-11T09:22:36.575Z,1.20
2022-12-11T09:26:19.163Z,1.20
2022-12-11T09:30:01.274Z,1.30
2022-12-11T09:33:43.567Z,1.30
2022-12-11T09:37:25.361Z,1.30
2022-12-11T09:41:31.988Z,1.30
2022-12-11T09:45:15.966Z,1.40
2022-12-11T09:48:58.043Z,1.40
2022-12-11T09:52:58.351Z,1.50
2022-12-11T09:56:46.190Z,1.60
2022-12-11T10:00:39.618Z,1.70
2022-12-11T10:05:12.306Z,1.80
2022-12-11T10:09:11.215Z,1.80
2022-12-11T10:13:30.400Z,1.90
2022-12-11T10:17:32.034Z,2.00
2022-12-11T10:21:16.369Z,2.00
2022-12-11T10:25:16.828Z,2.10
2022-12-11T10:29:00.782Z,2.20
2022-12-11T10:33:06.528Z,2.20
2022-12-11T10:36:48.445Z,2.20
2022-12-11T10:40:33.433Z,2.30
2022-12-11T10:44:17.109Z,2.40
2022-12-11T10:48:12.578Z,2.50
2022-12-11T10:52:01.384Z,2.60
2022-12-11T10:55:48.144Z,2.70
2022-12-11T10:59:56.314Z,2.80
2022-12-11T11:04:06.703Z,3.00
2022-12-11T11:07:48.578Z,3.10
2022-12-11T11:11:35.099Z,3.30
2022-12-11T11:15:22.624Z,3.40
2022-12-11T11:19:04.956Z,3.60
2022-12-11T11:22:52.320Z,3.70
2022-12-11T11:27:11.194Z,3.80
2022-12-11T11:30:41.950Z,3.90
2022-12-11T11:34:26.133Z,4.00
2022-12-11T11:38:19.573Z,4.20
2022-12-11T11:42:11.843Z,4.40
2022-12-11T11:46:01.863Z,4.50
2022-12-11T11:49:46.766Z,4.50
2022-12-11T11:53:37.322Z,4.60
2022-12-11T11:57:29.304Z,4.70
2022-12-11T12:01:20.235Z,4.70
2022-12-11T12:05:03.505Z,4.60
2022-12-11T12:09:06.905Z,4.60
2022-12-11T12:13:44.432Z,4.50
2022-12-11T12:17:23.365Z,4.50
2022-12-11T12:21:17.378Z,4.60
2022-12-11T12:25:20.927Z,4.80
2022-12-11T12:29:27.092Z,5.10
2022-12-11T12:33:28.805Z,5.20
2022-12-11T12:37:32.876Z,5.20
2022-12-11T12:41:23.111Z,5.20
2022-12-11T12:45:15.814Z,5.00
2022-12-11T12:49:00.193Z,4.90
2022-12-11T12:52:42.617Z,4.80
2022-12-11T12:56:26.127Z,4.70
2022-12-11T13:00:13.100Z,4.70
2022-12-11T13:04:08.665Z,4.60
2022-12-11T13:08:02.561Z,4.60
2022-12-11T13:11:46.028Z,4.70
2022-12-11T13:15:34.523Z,4.70
2022-12-11T13:19:25.527Z,4.70
2022-12-11T13:23:07.267Z,4.60
2022-12-11T13:26:50.266Z,4.50
2022-12-11T13:30:32.295Z,4.30
2022-12-11T13:34:18.592Z,4.30
2022-12-11T13:38:21.097Z,4.20
2022-12-11T13:42:11.926Z,4.10
2022-12-11T13:46:04.026Z,4.00
2022-12-11T13:49:50.020Z,3.90
2022-12-11T13:53:32.296Z,3.90
2022-12-11T13:57:23.663Z,3.80
2022-12-11T14:01:14.399Z,3.70
2022-12-11T14:05:06.547Z,3.70
2022-12-11T14:08:53.532Z,3.70
2022-12-11T14:12:36.831Z,3.70
2022-12-11T14:16:22.392Z,3.70
2022-12-11T14:20:09.235Z,3.70
2022-12-11T14:24:00.513Z,3.60
2022-12-11T14:27:47.219Z,3.60
2022-12-11T14:31:34.351Z,3.50
2022-12-11T14:35:38.884Z,3.50
2022-12-11T14:39:32.349Z,3.50
2022-12-11T14:43:31.735Z,3.40
2022-12-11T14:47:26.929Z,3.30
2022-12-11T14:51:15.054Z,3.30
2022-12-11T14:55:25.200Z,3.30
2022-12-11T14:59:15.951Z,3.20
2022-12-11T15:03:06.386Z,3.10
2022-12-11T15:06:50.768Z,3.10
2022-12-11T15:10:41.270Z,3.10
2022-12-11T15:14:25.206Z,3.00
2022-12-11T15:18:16.491Z,3.00
2022-12-11T15:22:02.743Z,3.00
2022-12-11T15:25:56.819Z,3.00
2022-12-11T15:29:40.138Z,2.90
2022-12-11T15:33:22.281Z,2.90
2022-12-11T15:37:04.300Z,2.80
2022-12-11T15:40:46.076Z,2.80
2022-12-11T15:44:27.868Z,2.70
2022-12-11T15:48:11.489Z,2.70
2022-12-11T15:51:54.684Z,2.70
2022-12-11T15:55:40.159Z,2.70
2022-12-11T15:59:22.224Z,2.60
2022-12-11T16:03:04.764Z,2.60
2022-12-11T16:06:46.957Z,2.60
2022-12-11T16:10:29.073Z,2.60
2022-12-11T16:14:13.056Z,2.50
2022-12-11T16:18:16.304Z,2.50
2022-12-11T16:21:58.235Z,2.50
2022-12-11T16:25:42.198Z,2.40
2022-12-11T16:29:24.094Z,2.40
2022-12-11T16:33:12.000Z,2.40
2022-12-11T16:36:58.443Z,2.40
2022-12-11T16:40:41.475Z,2.40
2022-12-11T16:44:24.994Z,2.30
2022-12-11T16:48:06.917Z,2.30
2022-12-11T16:51:49.585Z,2.30
2022-12-11T16:55:31.682Z,2.30
2022-12-11T16:59:13.558Z,2.30
2022-12-11T17:02:55.658Z,2.20
2022-12-11T17:06:37.440Z,2.20
2022-12-11T17:10:19.326Z,2.20
2022-12-11T17:14:01.148Z,2.20
2022-12-11T17:17:43.395Z,2.20
2022-12-11T17:21:25.703Z,2.20
2022-12-11T17:25:11.135Z,2.20
2022-12-11T17:28:53.183Z,2.20
2022-12-11T17:32:38.009Z,2.20
2022-12-11T17:36:21.795Z,2.20
2022-12-11T17:40:05.434Z,2.20
2022-12-11T17:43:48.572Z,2.20
2022-12-11T17:47:30.506Z,2.20
2022-12-11T17:51:20.927Z,2.30
2022-12-11T17:55:03.491Z,2.20
2022-12-11T17:58:45.398Z,2.20
2022-12-11T18:02:27.846Z,2.20
2022-12-11T18:06:12.859Z,2.20
2022-12-11T18:09:54.998Z,2.20
2022-12-11T18:13:37.097Z,2.20
2022-12-11T18:17:18.850Z,2.20
2022-12-11T18:21:01.095Z,2.10
2022-12-11T18:24:42.897Z,2.10
2022-12-11T18:28:24.714Z,2.10
2022-12-11T18:32:06.931Z,2.10
2022-12-11T18:35:50.423Z,2.10
2022-12-11T18:39:32.177Z,2.20
2022-12-11T18:43:14.007Z,2.20
2022-12-11T18:46:55.808Z,2.20
2022-12-11T18:50:37.905Z,2.20
2022-12-11T18:54:19.671Z,2.20
2022-12-11T18:58:01.661Z,2.30
2022-12-11T19:01:43.471Z,2.30
2022-12-11T19:05:25.258Z,2.20
2022-12-11T19:09:09.000Z,2.20
2022-12-11T19:12:50.790Z,2.30
2022-12-11T19:16:35.616Z,2.30
2022-12-11T19:24:23.795Z,2.30
2022-12-11T19:28:05.564Z,2.30
2022-12-11T19:31:47.627Z,2.30
2022-12-11T19:35:29.419Z,2.30
2022-12-11T19:39:13.248Z,2.30
2022-12-11T19:42:55.551Z,2.30
2022-12-11T19:46:38.130Z,2.30
2022-12-11T19:50:19.982Z,2.30
2022-12-11T19:54:02.966Z,2.30
2022-12-11T19:57:44.772Z,2.30
2022-12-11T20:01:30.974Z,2.30
2022-12-11T20:05:13.312Z,2.30
2022-12-11T20:08:55.611Z,2.30
2022-12-11T20:12:37.750Z,2.30
2022-12-11T20:16:33.379Z,2.30
2022-12-11T20:20:21.792Z,2.30
2022-12-11T20:24:03.683Z,2.30
2022-12-11T20:27:45.556Z,2.30
2022-12-11T20:31:27.378Z,2.30
2022-12-11T20:35:10.539Z,2.30
2022-12-11T20:38:52.992Z,2.30
2022-12-11T20:42:34.819Z,2.40
2022-12-11T20:46:17.883Z,2.30
2022-12-11T20:50:00.126Z,2.40
2022-12-11T20:53:42.837Z,2.30
2022-12-11T20:57:24.940Z,2.30
2022-12-11T21:01:07.030Z,2.40
2022-12-11T21:04:48.851Z,2.30
2022-12-11T21:08:30.637Z,2.30
2022-12-11T21:12:12.440Z,2.30
2022-12-11T21:15:56.779Z,2.30
2022-12-11T21:19:38.714Z,2.30
2022-12-11T21:23:20.532Z,2.20
2022-12-11T21:27:02.295Z,2.20
2022-12-11T21:30:44.392Z,2.10
2022-12-11T21:34:26.744Z,2.10
2022-12-11T21:38:08.508Z,2.10
2022-12-11T21:41:50.446Z,2.20
2022-12-11T21:49:38.196Z,2.10
2022-12-11T21:53:19.976Z,2.10
2022-12-11T21:57:01.710Z,2.20
2022-12-11T22:00:45.649Z,2.10
2022-12-11T22:04:27.572Z,2.10
2022-12-11T22:08:09.346Z,2.10
2022-12-11T22:11:56.643Z,2.10
2022-12-11T22:15:40.415Z,2.10
2022-12-11T22:19:22.207Z,2.10
2022-12-11T22:23:03.988Z,2.10
2022-12-11T22:26:45.822Z,2.10
2022-12-11T22:30:27.709Z,2.00
2022-12-11T22:34:09.484Z,2.00
2022-12-11T22:37:52.200Z,2.00
2022-12-11T22:41:34.124Z,2.00
2022-12-11T22:45:15.965Z,2.00
2022-12-11T22:48:58.258Z,2.00
2022-12-11T22:52:40.404Z,2.00
2022-12-11T22:56:22.176Z,2.00
2022-12-11T23:00:10.433Z,2.00
2022-12-11T23:03:52.669Z,2.00
2022-12-11T23:07:34.462Z,2.00
2022-12-11T23:11:24.111Z,2.00
2022-12-11T23:15:07.003Z,2.00
2022-12-11T23:18:49.057Z,2.00
2022-12-11T23:22:30.806Z,2.00
2022-12-11T23:26:14.666Z,2.00
2022-12-11T23:29:56.647Z,1.90
2022-12-11T23:33:38.476Z,1.90
2022-12-11T23:37:20.285Z,1.90
2022-12-11T23:41:04.098Z,1.90
2022-12-11T23:44:45.836Z,1.90
2022-12-11T23:48:27.607Z,1.90
2022-12-11T23:52:11.744Z,1.90
2022-12-11T23:55:54.046Z,1.90
2022-12-11T23:59:36.527Z,1.90
